createdAt,value
2023-03-23T00:00:52.321Z,86.76
2023-03-23T00:01:52.303Z,87.23
2023-03-23T00:02:52.304Z,87.43
2023-03-23T00:03:52.283Z,86.94
2023-03-23T00:04:52.300Z,86.94
2023-03-23T00:05:52.275Z,86.76
2023-03-23T00:06:52.271Z,87.23
2023-03-23T00:07:52.258Z,86.94
2023-03-23T00:08:52.245Z,87.43
2023-03-23T00:09:52.265Z,87.52
2023-03-23T00:10:52.223Z,87.90
2023-03-23T00:11:52.210Z,87.52
2023-03-23T00:12:52.222Z,87.90
2023-03-23T00:13:52.211Z,87.43
2023-03-23T00:14:52.208Z,87.71
2023-03-23T00:15:52.192Z,88.09
2023-03-23T00:16:52.189Z,88.09
2023-03-23T00:17:52.165Z,88.19
2023-03-23T00:18:52.161Z,88.19
2023-03-23T00:19:52.157Z,88.29
2023-03-23T00:20:52.147Z,88.38
2023-03-23T00:21:52.140Z,88.76
2023-03-23T00:22:52.141Z,88.86
2023-03-23T00:23:52.136Z,88.76
2023-03-23T00:24:52.166Z,87.90
2023-03-23T00:25:52.116Z,88.57
2023-03-23T00:26:52.097Z,88.19
2023-03-23T00:27:52.104Z,88.76
2023-03-23T00:28:52.107Z,88.76
2023-03-23T00:29:52.076Z,88.95
2023-03-23T00:30:52.072Z,89.15
2023-03-23T00:31:52.056Z,88.57
2023-03-23T00:32:52.053Z,88.76
2023-03-23T00:33:52.051Z,88.95
2023-03-23T00:34:52.037Z,89.05
2023-03-23T00:35:52.047Z,89.34
2023-03-23T00:36:52.019Z,89.81
2023-03-23T00:37:52.011Z,89.62
2023-03-23T00:38:52.029Z,89.62
2023-03-23T00:39:52.005Z,89.48
2023-03-23T00:40:51.990Z,89.62
2023-03-23T00:41:51.980Z,89.81
2023-03-23T00:42:51.973Z,89.62
2023-03-23T00:43:51.965Z,89.29
2023-03-23T00:44:53.626Z,89.15
2023-03-23T00:45:51.962Z,89.43
2023-03-23T00:46:51.934Z,89.48
2023-03-23T00:47:51.940Z,89.72
2023-03-23T00:48:51.928Z,89.48
2023-03-23T00:49:51.918Z,89.67
2023-03-23T00:50:51.917Z,89.58
2023-03-23T00:51:51.911Z,89.91
2023-03-23T00:52:51.897Z,89.01
2023-03-23T00:53:51.875Z,89.15
2023-03-23T00:54:51.891Z,89.43
2023-03-23T00:55:51.877Z,89.10
2023-03-23T00:56:51.857Z,89.10
2023-03-23T00:57:51.846Z,89.67
2023-03-23T00:58:51.843Z,89.29
2023-03-23T00:59:51.847Z,89.43
2023-03-23T01:00:51.848Z,89.77
2023-03-23T01:01:51.839Z,88.95
2023-03-23T01:02:51.813Z,89.15
2023-03-23T01:03:51.806Z,89.24
2023-03-23T01:04:51.799Z,89.20
2023-03-23T01:05:51.786Z,88.81
2023-03-23T01:06:51.790Z,88.57
2023-03-23T01:07:51.787Z,88.67
2023-03-23T01:08:51.755Z,88.57
2023-03-23T01:09:51.760Z,88.57
2023-03-23T01:10:51.740Z,88.76
2023-03-23T01:11:51.742Z,88.38
2023-03-23T01:12:51.733Z,87.62
2023-03-23T01:13:51.722Z,87.81
2023-03-23T01:14:51.731Z,88.19
2023-03-23T01:15:51.697Z,87.52
2023-03-23T01:16:51.686Z,87.43
2023-03-23T01:17:51.679Z,86.94
2023-03-23T01:18:51.672Z,87.52
2023-03-23T01:19:51.693Z,87.52
2023-03-23T01:20:51.657Z,86.94
2023-03-23T01:21:51.649Z,87.14
2023-03-23T01:22:51.655Z,87.23
2023-03-23T01:23:51.644Z,87.14
2023-03-23T01:24:51.625Z,86.85
2023-03-23T01:25:51.643Z,87.04
2023-03-23T01:26:51.606Z,86.76
2023-03-23T01:27:51.626Z,87.04
2023-03-23T01:28:51.597Z,87.23
2023-03-23T01:29:51.581Z,87.23
2023-03-23T01:30:51.569Z,87.43
2023-03-23T01:31:51.566Z,87.33
2023-03-23T01:32:51.573Z,87.43
2023-03-23T01:33:51.550Z,87.04
2023-03-23T01:34:51.562Z,87.43
2023-03-23T01:35:51.561Z,86.57
2023-03-23T01:36:51.541Z,87.23
2023-03-23T01:37:51.531Z,87.04
2023-03-23T01:38:51.511Z,86.76
2023-03-23T01:39:51.520Z,87.14
2023-03-23T01:40:51.608Z,87.04
2023-03-23T01:41:51.485Z,87.04
2023-03-23T01:42:51.506Z,87.43
2023-03-23T01:43:51.478Z,87.23
2023-03-23T01:44:51.485Z,86.94
2023-03-23T01:47:23.090Z,86.94
2023-03-23T01:48:23.047Z,87.52
2023-03-23T01:50:27.001Z,87.81
2023-03-23T01:51:36.715Z,87.43
2023-03-23T01:53:31.001Z,87.90
2023-03-23T01:54:30.918Z,87.81
2023-03-23T01:56:34.870Z,88.38
2023-03-23T01:57:34.854Z,88.19
2023-03-23T01:59:38.799Z,88.48
2023-03-23T02:00:38.788Z,88.38
2023-03-23T02:02:42.740Z,88.00
2023-03-23T02:03:42.728Z,88.67
2023-03-23T02:05:35.606Z,88.57
2023-03-23T02:06:35.576Z,88.95
2023-03-23T02:08:39.521Z,88.86
2023-03-23T02:09:39.519Z,89.05
2023-03-23T02:11:43.518Z,89.15
2023-03-23T02:12:43.469Z,89.05
2023-03-23T02:14:47.412Z,89.05
2023-03-23T02:15:47.402Z,89.34
2023-03-23T02:17:51.352Z,89.81
2023-03-23T02:18:51.334Z,89.87
2023-03-23T02:20:55.298Z,89.53
2023-03-23T02:21:55.269Z,89.43
2023-03-23T02:23:59.231Z,90.16
2023-03-23T02:24:59.225Z,89.96
2023-03-23T02:27:03.176Z,89.77
2023-03-23T02:28:03.153Z,90.34
2023-03-23T02:30:07.096Z,90.82
2023-03-23T02:31:07.084Z,91.02
2023-03-23T02:33:11.039Z,90.82
2023-03-23T02:34:11.012Z,90.73
2023-03-23T02:36:03.923Z,91.20
2023-03-23T02:37:03.882Z,90.92
2023-03-23T02:39:07.823Z,91.49
2023-03-23T02:40:07.842Z,92.74
2023-03-23T02:42:14.122Z,93.98
2023-03-23T02:43:11.743Z,95.89
2023-03-23T02:45:15.691Z,97.90
2023-03-23T02:46:15.673Z,99.81
2023-03-23T02:48:19.625Z,99.99
2023-03-23T02:49:19.605Z,99.99
2023-03-23T02:51:23.685Z,99.99
2023-03-23T02:52:23.540Z,99.99
2023-03-23T02:54:16.933Z,99.99
2023-03-23T02:55:16.926Z,99.99
2023-03-23T02:56:16.918Z,99.99
2023-03-23T02:57:16.899Z,99.99
2023-03-23T02:58:16.897Z,99.99
2023-03-23T02:59:16.898Z,99.99
2023-03-23T03:00:16.885Z,99.99
2023-03-23T03:01:16.875Z,99.99
2023-03-23T03:02:16.865Z,99.99
2023-03-23T03:03:16.872Z,99.99
2023-03-23T03:04:16.849Z,99.99
2023-03-23T03:05:16.840Z,99.99
2023-03-23T03:06:16.833Z,99.99
2023-03-23T03:07:16.834Z,99.99
2023-03-23T03:08:16.822Z,99.99
2023-03-23T03:09:16.809Z,99.99
2023-03-23T03:10:17.293Z,99.99
2023-03-23T03:11:16.787Z,99.99
2023-03-23T03:12:16.783Z,99.99
2023-03-23T03:13:16.775Z,99.99
2023-03-23T03:14:16.762Z,99.99
2023-03-23T03:15:16.758Z,99.99
2023-03-23T03:16:16.748Z,99.99
2023-03-23T03:17:16.738Z,99.99
2023-03-23T03:18:16.730Z,99.99
2023-03-23T03:19:17.937Z,99.99
2023-03-23T03:20:16.715Z,99.99
2023-03-23T03:21:16.706Z,99.99
2023-03-23T03:22:16.694Z,99.99
2023-03-23T03:23:16.688Z,99.99
2023-03-23T03:24:16.679Z,99.99
2023-03-23T03:25:18.187Z,99.99
2023-03-23T03:26:16.664Z,99.99
2023-03-23T03:27:16.660Z,99.99
2023-03-23T03:28:16.656Z,99.99
2023-03-23T03:29:16.639Z,99.99
2023-03-23T03:30:16.646Z,99.99
2023-03-23T03:31:16.627Z,99.99
2023-03-23T03:32:16.622Z,99.99
2023-03-23T03:33:16.613Z,99.99
2023-03-23T03:34:16.607Z,99.99
2023-03-23T03:35:16.588Z,99.99
2023-03-23T03:36:17.183Z,99.99
2023-03-23T03:37:16.573Z,99.99
2023-03-23T03:38:16.573Z,99.99
2023-03-23T03:39:16.558Z,99.99
2023-03-23T03:40:16.543Z,99.99
2023-03-23T03:41:16.536Z,99.99
2023-03-23T03:42:16.545Z,99.99
2023-03-23T03:43:16.523Z,99.99
2023-03-23T03:44:16.523Z,99.99
2023-03-23T03:45:16.515Z,99.99
2023-03-23T03:46:16.514Z,99.99
2023-03-23T03:47:16.482Z,99.99
2023-03-23T03:48:16.492Z,99.99
2023-03-23T03:49:16.470Z,99.99
2023-03-23T03:50:16.482Z,99.99
2023-03-23T03:51:16.464Z,99.99
2023-03-23T03:52:16.448Z,99.99
2023-03-23T03:53:16.439Z,99.99
2023-03-23T03:54:16.434Z,99.99
2023-03-23T03:55:16.436Z,99.99
2023-03-23T03:56:16.421Z,99.99
2023-03-23T03:57:16.411Z,99.99
2023-03-23T03:58:16.405Z,99.99
2023-03-23T03:59:21.726Z,99.99
2023-03-23T04:00:16.377Z,99.99
2023-03-23T04:01:16.400Z,99.99
2023-03-23T04:02:16.399Z,99.99
2023-03-23T04:03:16.357Z,99.99
2023-03-23T04:04:16.355Z,99.99
2023-03-23T04:05:16.348Z,99.99
2023-03-23T04:06:16.322Z,99.99
2023-03-23T04:07:16.326Z,99.99
2023-03-23T04:08:16.306Z,99.99
2023-03-23T04:09:16.323Z,99.99
2023-03-23T04:10:16.303Z,99.99
2023-03-23T04:11:32.591Z,99.99
2023-03-23T04:12:16.279Z,99.99
2023-03-23T04:13:16.356Z,99.99
2023-03-23T04:14:16.257Z,99.99
2023-03-23T04:15:16.248Z,99.99
2023-03-23T04:16:16.257Z,99.99
2023-03-23T04:17:16.237Z,99.99
2023-03-23T04:18:16.336Z,99.99
2023-03-23T04:19:16.210Z,99.99
2023-03-23T04:20:16.210Z,99.99
2023-03-23T04:21:16.184Z,99.99
2023-03-23T04:22:16.189Z,99.99
2023-03-23T04:23:16.181Z,99.99
2023-03-23T04:24:23.346Z,99.99
2023-03-23T04:25:16.159Z,99.99
2023-03-23T04:26:16.152Z,99.99
2023-03-23T04:27:16.161Z,99.99
2023-03-23T04:28:16.142Z,99.99
2023-03-23T04:29:16.257Z,99.99
2023-03-23T04:30:16.143Z,99.99
2023-03-23T04:31:16.124Z,99.99
2023-03-23T04:32:16.113Z,99.99
2023-03-23T04:33:16.104Z,99.99
2023-03-23T04:34:16.080Z,99.99
2023-03-23T04:35:16.087Z,99.99
2023-03-23T04:36:16.113Z,99.99
2023-03-23T04:37:16.055Z,99.99
2023-03-23T04:38:16.061Z,99.99
2023-03-23T04:39:16.040Z,99.99
2023-03-23T04:40:16.039Z,99.99
2023-03-23T04:41:16.027Z,99.99
2023-03-23T04:42:16.011Z,99.99
2023-03-23T04:43:16.031Z,99.99
2023-03-23T04:44:16.005Z,99.99
2023-03-23T04:45:16.007Z,99.99
2023-03-23T04:46:15.997Z,99.99
2023-03-23T04:47:15.991Z,99.99
2023-03-23T04:48:15.980Z,99.99
2023-03-23T04:49:15.950Z,99.99
2023-03-23T04:50:15.939Z,99.99
2023-03-23T04:51:15.933Z,99.99
2023-03-23T04:52:15.930Z,99.99
2023-03-23T04:53:15.941Z,99.99
2023-03-23T04:54:15.914Z,99.99
2023-03-23T04:55:15.910Z,99.99
2023-03-23T04:56:15.904Z,99.99
2023-03-23T04:57:15.895Z,99.99
2023-03-23T04:58:15.889Z,99.99
2023-03-23T04:59:15.859Z,99.99
2023-03-23T05:00:15.873Z,99.99
2023-03-23T05:01:15.864Z,99.99
2023-03-23T05:02:15.837Z,99.99
2023-03-23T05:03:15.848Z,99.99
2023-03-23T05:04:15.823Z,99.99
2023-03-23T05:05:15.822Z,99.99
2023-03-23T05:06:15.802Z,99.99
2023-03-23T05:07:15.789Z,99.99
2023-03-23T05:08:15.784Z,99.99
2023-03-23T05:09:15.776Z,99.99
2023-03-23T05:10:15.772Z,99.99
2023-03-23T05:11:15.758Z,99.99
2023-03-23T05:12:15.747Z,99.99
2023-03-23T05:13:15.737Z,99.99
2023-03-23T05:14:15.747Z,99.99
2023-03-23T05:15:15.737Z,99.99
2023-03-23T05:16:15.714Z,99.99
2023-03-23T05:17:15.703Z,99.99
2023-03-23T05:18:15.703Z,99.99
2023-03-23T05:19:15.717Z,99.99
2023-03-23T05:20:15.698Z,99.99
2023-03-23T05:21:15.710Z,99.99
2023-03-23T05:22:15.676Z,99.99
2023-03-23T05:23:15.660Z,99.99
2023-03-23T05:24:15.680Z,99.99
2023-03-23T05:25:15.657Z,99.99
2023-03-23T05:26:15.648Z,99.99
2023-03-23T05:27:15.682Z,99.99
2023-03-23T05:28:15.636Z,99.99
2023-03-23T05:29:15.602Z,99.99
2023-03-23T05:30:15.605Z,99.99
2023-03-23T05:31:15.598Z,99.99
2023-03-23T05:32:15.590Z,99.99
2023-03-23T05:33:15.598Z,99.99
2023-03-23T05:34:15.553Z,99.99
2023-03-23T05:35:15.584Z,99.99
2023-03-23T05:36:15.576Z,99.99
2023-03-23T05:37:15.531Z,99.99
2023-03-23T05:38:15.530Z,99.99
2023-03-23T05:39:15.509Z,99.99
2023-03-23T05:40:15.522Z,99.99
2023-03-23T05:41:16.922Z,99.99
2023-03-23T05:42:15.490Z,99.99
2023-03-23T05:43:15.470Z,99.99
2023-03-23T05:44:15.486Z,99.99
2023-03-23T05:45:15.458Z,99.99
2023-03-23T05:46:15.458Z,99.99
2023-03-23T05:47:15.435Z,99.99
2023-03-23T05:48:15.481Z,99.99
2023-03-23T05:49:15.420Z,99.99
2023-03-23T05:50:15.422Z,99.99
2023-03-23T05:51:51.036Z,99.99
2023-03-23T05:52:15.394Z,99.99
2023-03-23T05:53:15.390Z,99.99
2023-03-23T05:54:15.381Z,99.99
2023-03-23T05:55:15.379Z,99.99
2023-03-23T05:56:15.360Z,99.99
2023-03-23T05:57:15.352Z,99.99
2023-03-23T05:58:15.347Z,99.99
2023-03-23T05:59:15.335Z,99.99
2023-03-23T06:00:15.329Z,99.99
2023-03-23T06:01:15.320Z,99.99
2023-03-23T06:02:15.331Z,99.99
2023-03-23T06:03:15.375Z,99.99
2023-03-23T06:04:15.317Z,99.99
2023-03-23T06:05:15.287Z,99.99
2023-03-23T06:06:15.295Z,99.99
2023-03-23T06:07:15.262Z,99.99
2023-03-23T06:08:15.262Z,99.99
2023-03-23T06:09:15.268Z,99.99
2023-03-23T06:10:15.256Z,99.99
2023-03-23T06:11:15.241Z,99.99
2023-03-23T06:12:15.230Z,99.99
2023-03-23T06:13:15.218Z,99.99
2023-03-23T06:14:15.221Z,99.99
2023-03-23T06:15:15.221Z,99.99
2023-03-23T06:16:15.426Z,99.99
2023-03-23T06:17:15.197Z,99.99
2023-03-23T06:18:15.171Z,99.99
2023-03-23T06:19:15.164Z,99.99
2023-03-23T06:20:15.182Z,99.99
2023-03-23T06:21:18.498Z,99.99
2023-03-23T06:22:15.127Z,99.99
2023-03-23T06:23:15.134Z,99.99
2023-03-23T06:24:15.119Z,99.99
2023-03-23T06:25:15.213Z,99.99
2023-03-23T06:26:15.104Z,99.99
2023-03-23T06:27:16.660Z,99.99
2023-03-23T06:28:15.084Z,99.99
2023-03-23T06:29:15.110Z,99.99
2023-03-23T06:30:15.106Z,99.99
2023-03-23T06:31:15.074Z,99.99
2023-03-23T06:32:15.048Z,99.99
2023-03-23T06:33:15.057Z,99.99
2023-03-23T06:34:15.035Z,99.99
2023-03-23T06:35:15.026Z,99.99
2023-03-23T06:36:15.048Z,99.99
2023-03-23T06:37:15.002Z,99.99
2023-03-23T06:38:15.009Z,99.99
2023-03-23T06:39:14.999Z,99.99
2023-03-23T06:40:14.973Z,99.99
2023-03-23T06:41:14.990Z,99.99
2023-03-23T06:42:14.975Z,99.99
2023-03-23T06:43:14.958Z,99.99
2023-03-23T06:44:14.956Z,99.99
2023-03-23T06:45:14.933Z,99.99
2023-03-23T06:46:14.944Z,99.99
2023-03-23T06:47:14.926Z,99.99
2023-03-23T06:48:14.919Z,99.99
2023-03-23T06:49:14.936Z,99.99
2023-03-23T06:50:14.901Z,99.99
2023-03-23T06:51:14.883Z,99.99
2023-03-23T06:52:14.878Z,99.99
2023-03-23T06:53:14.895Z,99.99
2023-03-23T06:54:14.885Z,99.99
2023-03-23T06:55:14.872Z,99.99
2023-03-23T06:56:14.860Z,99.99
2023-03-23T06:57:14.827Z,99.99
2023-03-23T06:58:14.842Z,99.99
2023-03-23T06:59:14.822Z,99.99
2023-03-23T07:00:14.817Z,99.99
2023-03-23T07:01:14.808Z,99.99
2023-03-23T07:02:14.798Z,99.99
2023-03-23T07:03:14.805Z,99.99
2023-03-23T07:04:14.789Z,99.99
2023-03-23T07:05:14.763Z,99.99
2023-03-23T07:06:14.770Z,99.99
2023-03-23T07:07:14.750Z,99.99
2023-03-23T07:08:14.748Z,99.99
2023-03-23T07:09:14.735Z,99.99
2023-03-23T07:10:14.727Z,99.99
2023-03-23T07:11:14.727Z,99.99
2023-03-23T07:12:14.705Z,99.99
2023-03-23T07:13:14.716Z,99.99
2023-03-23T07:14:14.716Z,99.99
2023-03-23T07:15:14.700Z,99.99
2023-03-23T07:16:14.670Z,99.99
2023-03-23T07:17:14.676Z,99.99
2023-03-23T07:18:14.652Z,99.99
2023-03-23T07:19:14.642Z,99.99
2023-03-23T07:20:14.641Z,99.99
2023-03-23T07:21:14.634Z,99.99
2023-03-23T07:22:14.618Z,99.99
2023-03-23T07:23:14.631Z,99.99
2023-03-23T07:24:14.595Z,99.99
2023-03-23T07:25:14.639Z,99.99
2023-03-23T07:26:14.594Z,99.99
2023-03-23T07:27:14.583Z,99.99
2023-03-23T07:28:14.572Z,99.99
2023-03-23T07:29:14.559Z,99.99
2023-03-23T07:30:14.557Z,99.99
2023-03-23T07:31:14.545Z,99.99
2023-03-23T07:32:14.521Z,99.99
2023-03-23T07:33:14.526Z,99.99
2023-03-23T07:34:14.517Z,99.99
2023-03-23T07:35:14.507Z,99.99
2023-03-23T07:36:14.538Z,99.99
2023-03-23T07:37:14.486Z,99.99
2023-03-23T07:38:14.776Z,99.99
2023-03-23T07:39:14.460Z,99.99
2023-03-23T07:40:14.457Z,99.99
2023-03-23T07:41:14.472Z,99.99
2023-03-23T07:42:14.453Z,99.99
2023-03-23T07:43:14.431Z,99.99
2023-03-23T07:44:14.433Z,99.99
2023-03-23T07:45:14.431Z,99.99
2023-03-23T07:46:14.405Z,99.99
2023-03-23T07:47:14.402Z,99.99
2023-03-23T07:48:21.087Z,99.99
2023-03-23T07:49:14.399Z,99.99
2023-03-23T07:50:14.371Z,99.99
2023-03-23T07:51:14.374Z,99.99
2023-03-23T07:52:14.374Z,99.99
2023-03-23T07:53:14.350Z,99.99
2023-03-23T07:54:14.343Z,99.99
2023-03-23T07:55:14.352Z,99.99
2023-03-23T07:56:14.325Z,99.99
2023-03-23T07:57:14.316Z,99.99
2023-03-23T07:58:14.318Z,99.99
2023-03-23T07:59:14.307Z,99.99
2023-03-23T08:00:14.290Z,99.99
2023-03-23T08:01:14.296Z,99.99
2023-03-23T08:02:14.284Z,99.99
2023-03-23T08:03:14.265Z,99.99
2023-03-23T08:04:14.261Z,99.99
2023-03-23T08:05:14.243Z,99.99
2023-03-23T08:06:14.239Z,99.99
2023-03-23T08:07:14.230Z,99.99
2023-03-23T08:08:14.230Z,99.99
2023-03-23T08:09:14.231Z,99.99
2023-03-23T08:10:14.206Z,99.99
2023-03-23T08:11:14.220Z,99.99
2023-03-23T08:12:14.202Z,99.99
2023-03-23T08:13:14.223Z,99.99
2023-03-23T08:14:17.638Z,99.99
2023-03-23T08:15:14.160Z,99.99
2023-03-23T08:16:14.149Z,99.99
2023-03-23T08:17:14.137Z,99.99
2023-03-23T08:18:14.138Z,99.99
2023-03-23T08:19:21.281Z,99.99
2023-03-23T08:21:07.015Z,99.99
2023-03-23T08:22:06.991Z,99.99
2023-03-23T08:24:21.894Z,99.99
2023-03-23T08:25:21.884Z,99.99
2023-03-23T08:27:25.832Z,99.99
2023-03-23T08:28:25.815Z,99.99
2023-03-23T08:30:18.712Z,99.99
2023-03-23T08:31:18.693Z,99.99
2023-03-23T08:33:22.641Z,99.99
2023-03-23T08:34:22.631Z,99.99
2023-03-23T08:36:15.551Z,99.99
2023-03-23T08:37:15.495Z,99.99
2023-03-23T08:39:19.448Z,99.99
2023-03-23T08:40:19.477Z,99.99
2023-03-23T08:42:23.367Z,99.99
2023-03-23T08:43:23.350Z,99.99
2023-03-23T08:45:16.263Z,99.99
2023-03-23T08:46:16.227Z,99.99
2023-03-23T08:48:20.173Z,99.99
2023-03-23T08:49:20.192Z,99.99
2023-03-23T08:51:24.111Z,99.99
2023-03-23T08:52:24.086Z,99.99
2023-03-23T08:54:28.036Z,99.99
2023-03-23T08:55:28.015Z,99.99
2023-03-23T08:57:31.958Z,99.99
2023-03-23T08:58:31.949Z,99.99
2023-03-23T09:00:45.460Z,99.99
2023-03-23T09:01:35.879Z,99.99
2023-03-23T09:03:39.827Z,99.99
2023-03-23T09:04:39.815Z,99.99
2023-03-23T09:06:43.763Z,99.99
2023-03-23T09:07:43.749Z,99.99
2023-03-23T09:09:36.629Z,99.99
2023-03-23T09:10:36.618Z,99.99
2023-03-23T09:12:40.393Z,99.99
2023-03-23T09:13:40.382Z,99.99
2023-03-23T09:15:36.902Z,99.99
2023-03-23T09:16:33.243Z,99.99
2023-03-23T09:18:37.186Z,99.99
2023-03-23T09:19:37.181Z,99.99
2023-03-23T09:21:41.177Z,99.99
2023-03-23T09:22:41.134Z,99.99
2023-03-23T09:24:45.579Z,99.99
2023-03-23T09:25:45.554Z,99.99
2023-03-23T09:26:45.545Z,99.99
2023-03-23T09:27:45.544Z,99.99
2023-03-23T09:28:45.528Z,99.99
2023-03-23T09:29:45.528Z,99.99
2023-03-23T09:30:53.087Z,99.99
2023-03-23T09:31:45.507Z,99.99
2023-03-23T09:32:45.496Z,99.99
2023-03-23T09:33:47.140Z,99.99
2023-03-23T09:34:45.482Z,99.99
2023-03-23T09:35:45.502Z,99.99
2023-03-23T09:36:45.469Z,99.99
2023-03-23T09:37:45.469Z,99.99
2023-03-23T09:38:45.459Z,99.99
2023-03-23T09:39:45.445Z,99.99
2023-03-23T09:40:45.451Z,99.99
2023-03-23T09:41:45.444Z,99.99
2023-03-23T09:42:45.423Z,99.99
2023-03-23T09:43:45.424Z,99.99
2023-03-23T09:44:45.407Z,99.99
2023-03-23T09:45:45.427Z,99.99
2023-03-23T09:46:45.406Z,99.99
2023-03-23T09:47:45.389Z,99.99
2023-03-23T09:48:45.382Z,99.99
2023-03-23T09:49:45.369Z,99.99
2023-03-23T09:50:45.377Z,99.99
2023-03-23T09:51:45.363Z,99.99
2023-03-23T09:52:45.354Z,99.99
2023-03-23T09:53:45.341Z,99.99
2023-03-23T09:54:45.339Z,99.99
2023-03-23T09:55:45.327Z,99.99
2023-03-23T09:56:45.320Z,99.99
2023-03-23T09:57:45.314Z,99.99
2023-03-23T09:58:46.501Z,99.99
2023-03-23T09:59:45.302Z,99.99
2023-03-23T10:00:45.369Z,99.99
2023-03-23T10:01:45.282Z,99.99
2023-03-23T10:02:45.292Z,99.99
2023-03-23T10:03:45.291Z,99.99
2023-03-23T10:04:45.263Z,99.99
2023-03-23T10:05:45.261Z,99.99
2023-03-23T10:06:45.247Z,99.99
2023-03-23T10:07:45.243Z,99.99
2023-03-23T10:08:51.621Z,99.99
2023-03-23T10:09:45.226Z,99.99
2023-03-23T10:10:45.219Z,99.99
2023-03-23T10:11:45.210Z,99.99
2023-03-23T10:12:45.204Z,99.99
2023-03-23T10:13:45.197Z,99.99
2023-03-23T10:14:45.187Z,99.99
2023-03-23T10:15:45.182Z,99.99
2023-03-23T10:16:45.175Z,99.99
2023-03-23T10:17:45.186Z,99.99
2023-03-23T10:18:45.161Z,99.99
2023-03-23T10:19:45.156Z,99.99
2023-03-23T10:20:45.149Z,99.99
2023-03-23T10:21:45.149Z,99.99
2023-03-23T10:22:45.131Z,99.99
2023-03-23T10:23:46.509Z,99.99
2023-03-23T10:24:45.119Z,99.99
2023-03-23T10:25:45.110Z,99.99
2023-03-23T10:26:45.103Z,99.99
2023-03-23T10:27:45.106Z,99.99
2023-03-23T10:28:45.096Z,99.99
2023-03-23T10:29:46.125Z,99.99
2023-03-23T10:30:45.076Z,99.99
2023-03-23T10:31:45.069Z,99.99
2023-03-23T10:32:45.063Z,99.99
2023-03-23T10:33:45.054Z,99.99
2023-03-23T10:34:45.047Z,99.99
2023-03-23T10:35:45.142Z,99.99
2023-03-23T10:36:45.044Z,99.99
2023-03-23T10:37:45.027Z,99.99
2023-03-23T10:38:45.021Z,99.99
2023-03-23T10:39:45.015Z,99.99
2023-03-23T10:40:45.008Z,99.99
2023-03-23T10:41:45.006Z,99.99
2023-03-23T10:42:44.986Z,99.99
2023-03-23T10:43:44.990Z,99.99
2023-03-23T10:44:44.976Z,99.99
2023-03-23T10:45:58.353Z,99.99
2023-03-23T10:46:48.166Z,99.99
2023-03-23T10:47:44.958Z,99.99
2023-03-23T10:48:44.949Z,99.99
2023-03-23T10:49:44.950Z,99.99
2023-03-23T10:50:44.935Z,99.99
2023-03-23T10:51:44.928Z,99.99
2023-03-23T10:52:44.921Z,99.99
2023-03-23T10:53:44.915Z,99.99
2023-03-23T10:54:44.905Z,99.99
2023-03-23T10:55:44.900Z,99.99
2023-03-23T10:56:58.161Z,99.99
2023-03-23T10:57:44.886Z,99.99
2023-03-23T10:58:44.879Z,99.99
2023-03-23T10:59:44.876Z,99.99
2023-03-23T11:00:44.868Z,99.99
2023-03-23T11:01:44.864Z,99.99
2023-03-23T11:02:44.855Z,99.99
2023-03-23T11:03:44.857Z,99.99
2023-03-23T11:04:44.838Z,99.99
2023-03-23T11:05:53.484Z,99.99
2023-03-23T11:07:49.277Z,99.99
2023-03-23T11:08:49.260Z,99.99
2023-03-23T11:09:49.258Z,99.99
2023-03-23T11:10:49.249Z,99.99
2023-03-23T11:11:49.246Z,99.99
2023-03-23T11:12:49.237Z,99.99
2023-03-23T11:13:49.229Z,99.99
2023-03-23T11:14:49.218Z,99.99
2023-03-23T11:15:49.209Z,99.99
2023-03-23T11:16:49.206Z,99.99
2023-03-23T11:17:49.197Z,99.99
2023-03-23T11:18:49.196Z,99.99
2023-03-23T11:19:49.191Z,99.99
2023-03-23T11:20:49.175Z,99.99
2023-03-23T11:21:49.179Z,99.99
2023-03-23T11:22:49.168Z,99.99
2023-03-23T11:23:51.524Z,99.99
2023-03-23T11:24:49.160Z,99.99
2023-03-23T11:25:49.145Z,99.99
2023-03-23T11:26:58.435Z,99.99
2023-03-23T11:27:49.131Z,99.99
2023-03-23T11:28:49.142Z,99.99
2023-03-23T11:29:55.018Z,99.99
2023-03-23T11:30:49.111Z,99.99
2023-03-23T11:31:49.107Z,99.99
2023-03-23T11:32:49.102Z,99.99
2023-03-23T11:33:54.611Z,99.99
2023-03-23T11:34:49.087Z,99.99
2023-03-23T11:35:49.110Z,99.99
2023-03-23T11:36:49.076Z,99.99
2023-03-23T11:37:49.060Z,99.99
2023-03-23T11:38:49.059Z,99.99
2023-03-23T11:39:49.053Z,99.99
2023-03-23T11:40:49.049Z,99.99
2023-03-23T11:41:53.270Z,99.99
2023-03-23T11:42:49.032Z,99.99
2023-03-23T11:43:49.024Z,99.99
2023-03-23T11:44:49.018Z,99.99
2023-03-23T11:45:49.008Z,99.99
2023-03-23T11:46:49.007Z,99.99
2023-03-23T11:47:48.996Z,99.99
2023-03-23T11:48:48.998Z,99.99
2023-03-23T11:49:49.014Z,99.99
2023-03-23T11:50:48.978Z,99.99
2023-03-23T11:51:48.968Z,99.99
2023-03-23T11:52:48.963Z,99.99
2023-03-23T11:53:48.955Z,99.99
2023-03-23T11:54:49.001Z,99.99
2023-03-23T11:55:48.950Z,99.99
2023-03-23T11:56:48.936Z,99.99
2023-03-23T11:57:48.925Z,99.99
2023-03-23T11:58:48.918Z,99.99
2023-03-23T11:59:48.912Z,99.99
2023-03-23T12:00:48.902Z,99.99
2023-03-23T12:01:48.896Z,99.99
2023-03-23T12:02:48.889Z,99.99
2023-03-23T12:03:48.881Z,99.99
2023-03-23T12:04:48.879Z,99.99
2023-03-23T12:05:48.866Z,99.99
2023-03-23T12:06:48.858Z,99.99
2023-03-23T12:07:48.854Z,99.99
2023-03-23T12:08:48.846Z,99.99
2023-03-23T12:09:48.839Z,99.99
2023-03-23T12:11:48.825Z,99.99
2023-03-23T12:12:48.818Z,99.99
2023-03-23T12:13:53.023Z,99.99
2023-03-23T12:14:48.802Z,99.99
2023-03-23T12:15:48.808Z,99.99
2023-03-23T12:16:48.784Z,99.99
2023-03-23T12:17:48.777Z,99.99
2023-03-23T12:18:48.772Z,99.99
2023-03-23T12:19:48.765Z,99.99
2023-03-23T12:20:48.759Z,99.99
2023-03-23T12:21:48.750Z,99.99
2023-03-23T12:22:48.745Z,99.99
2023-03-23T12:23:48.734Z,99.99
2023-03-23T12:24:48.732Z,99.99
2023-03-23T12:25:48.731Z,99.99
2023-03-23T12:26:48.717Z,99.99
2023-03-23T12:27:48.709Z,99.99
2023-03-23T12:28:48.704Z,99.99
2023-03-23T12:29:48.694Z,99.99
2023-03-23T12:30:48.688Z,99.99
2023-03-23T12:31:48.684Z,99.99
2023-03-23T12:32:48.675Z,99.99
2023-03-23T12:33:48.668Z,99.99
2023-03-23T12:34:48.666Z,99.99
2023-03-23T12:35:48.649Z,99.99
2023-03-23T12:36:48.652Z,99.99
2023-03-23T12:37:48.635Z,99.99
2023-03-23T12:38:48.627Z,99.99
2023-03-23T12:39:48.626Z,99.99
2023-03-23T12:40:48.614Z,99.99
2023-03-23T12:41:48.610Z,99.99
2023-03-23T12:42:48.602Z,99.99
2023-03-23T12:43:48.594Z,99.99
2023-03-23T12:44:48.588Z,99.99
2023-03-23T12:45:48.578Z,99.99
2023-03-23T12:46:50.569Z,99.99
2023-03-23T12:47:48.562Z,99.99
2023-03-23T12:48:48.568Z,99.99
2023-03-23T12:49:48.555Z,99.99
2023-03-23T12:50:48.547Z,99.99
2023-03-23T12:51:48.545Z,99.99
2023-03-23T12:52:48.533Z,99.99
2023-03-23T12:53:48.528Z,99.99
2023-03-23T12:54:48.520Z,99.99
2023-03-23T12:55:48.512Z,99.99
2023-03-23T12:56:48.510Z,99.99
2023-03-23T12:57:48.505Z,99.99
2023-03-23T12:58:50.633Z,99.99
2023-03-23T12:59:48.487Z,99.99
2023-03-23T13:00:48.482Z,99.99
2023-03-23T13:01:48.479Z,99.99
2023-03-23T13:02:48.465Z,99.99
2023-03-23T13:03:48.463Z,99.99
2023-03-23T13:04:49.638Z,99.99
2023-03-23T13:05:48.445Z,99.99
2023-03-23T13:06:48.441Z,99.99
2023-03-23T13:07:48.431Z,99.99
2023-03-23T13:08:48.429Z,99.99
2023-03-23T13:09:48.436Z,99.99
2023-03-23T13:10:48.416Z,99.99
2023-03-23T13:11:48.407Z,99.99
2023-03-23T13:12:48.409Z,99.99
2023-03-23T13:13:54.933Z,99.99
2023-03-23T13:14:48.391Z,99.99
2023-03-23T13:15:48.376Z,99.99
2023-03-23T13:16:48.376Z,99.99
2023-03-23T13:17:48.367Z,99.99
2023-03-23T13:18:48.368Z,99.99
2023-03-23T13:19:48.357Z,99.99
2023-03-23T13:20:48.355Z,99.99
2023-03-23T13:21:52.975Z,99.99
2023-03-23T13:22:50.057Z,99.99
2023-03-23T13:23:48.332Z,99.99
2023-03-23T13:24:48.330Z,99.99
2023-03-23T13:25:48.313Z,99.99
2023-03-23T13:26:48.309Z,99.99
2023-03-23T13:27:48.299Z,99.99
2023-03-23T13:28:50.528Z,99.99
2023-03-23T13:29:48.285Z,99.99
2023-03-23T13:30:48.284Z,99.99
2023-03-23T13:31:48.271Z,99.99
2023-03-23T13:32:56.890Z,99.99
2023-03-23T13:33:48.260Z,99.99
2023-03-23T13:34:50.342Z,99.99
2023-03-23T13:35:48.287Z,99.99
2023-03-23T13:36:48.240Z,99.99
2023-03-23T13:37:48.227Z,99.99
2023-03-23T13:38:48.230Z,99.99
2023-03-23T13:39:48.217Z,99.99
2023-03-23T13:40:48.207Z,99.99
2023-03-23T13:41:48.203Z,99.99